Time;durP1;ratioP1;P1;durP2;ratioP2;P2;SDS_P1;SDS_P2;PMS_P1;PMS_P2;Temp;Humidity;BMP_temperature;BMP_pressure;BME280_temperature;BME280_humidity;BME280_pressure;Samples;Min_cycle;Max_cycle;Signal;HPM_P1;HPM_P2
2021/07/31 11:50:05;;;;;;;14.73;2.88;;;;;;;;;;4979072;28;20081;-81
2021/07/31 11:52:32;;;;;;;8.55;2.53;;;;;;;;;;4971350;28;20050;-81
2021/07/31 11:55:00;;;;;;;14.57;2.35;;;;;;;;;;4989178;28;20077;-81
2021/07/31 11:57:28;;;;;;;5.78;2.03;;;;;;;;;;4971912;28;20133;-80
2021/07/31 11:59:59;;;;;;;6.43;2.30;;;;;;;;;;4970793;28;20145;-80
2021/07/31 12:02:37;;;;;;;4.20;2.28;;;;;;;;;;4995994;28;20050;-79
2021/07/31 12:05:05;;;;;;;3.92;1.90;;;;;;;;;;4982670;28;20053;-82
2021/07/31 12:07:32;;;;;;;3.00;1.70;;;;;;;;;;4968921;28;20096;-81
2021/07/31 12:10:06;;;;;;;5.22;2.10;;;;;;;;;;4968766;28;20042;-81
2021/07/31 12:12:36;;;;;;;16.42;2.55;;;;;;;;;;4973170;28;20133;-80
2021/07/31 12:15:10;;;;;;;3.63;1.90;;;;;;;;;;4987639;28;20746;-79
2021/07/31 12:17:38;;;;;;;10.88;1.55;;;;;;;;;;4968855;28;20547;-79
2021/07/31 12:20:07;;;;;;;12.45;1.88;;;;;;;;;;4997717;28;20057;-80
2021/07/31 12:22:35;;;;;;;13.82;2.92;;;;;;;;;;4998968;28;20066;-79
2021/07/31 12:25:16;;;;;;;6.63;1.95;;;;;;;;;;4987757;28;20081;-79
2021/07/31 12:27:49;;;;;;;3.40;1.85;;;;;;;;;;4980834;28;20129;-78
2021/07/31 12:30:27;;;;;;;8.57;1.80;;;;;;;;;;4986239;28;20141;-78
2021/07/31 12:33:14;;;;;;;4.40;1.60;;;;;;;;;;4994269;28;20097;-78
2021/07/31 12:35:45;;;;;;;5.10;1.48;;;;;;;;;;4987981;28;20137;-78
2021/07/31 12:38:19;;;;;;;5.30;1.65;;;;;;;;;;4970689;28;20157;-78
2021/07/31 12:40:47;;;;;;;3.60;1.70;;;;;;;;;;4967555;28;20061;-79
2021/07/31 12:43:16;;;;;;;9.32;2.13;;;;;;;;;;4985190;28;20711;-77
2021/07/31 12:45:46;;;;;;;5.53;1.80;;;;;;;;;;4988303;28;20066;-77
2021/07/31 12:48:16;;;;;;;4.45;1.63;;;;;;;;;;4977156;28;20091;-77
2021/07/31 12:50:44;;;;;;;10.52;2.30;;;;;;;;;;4996239;28;20100;-77
2021/07/31 12:53:12;;;;;;;11.55;1.70;;;;;;;;;;4969425;28;20189;-77
2021/07/31 12:55:41;;;;;;;3.75;1.65;;;;;;;;;;4996365;28;20081;-78
2021/07/31 12:58:11;;;;;;;9.43;1.90;;;;;;;;;;4984164;28;20069;-77
2021/07/31 13:00:39;;;;;;;5.15;1.50;;;;;;;;;;4985847;28;20150;-79
2021/07/31 13:03:07;;;;;;;7.25;2.05;;;;;;;;;;4985241;28;20065;-77
2021/07/31 13:05:38;;;;;;;6.35;2.40;;;;;;;;;;4970280;28;20050;-79
2021/07/31 13:08:05;;;;;;;2.08;1.88;;;;;;;;;;4970618;28;20186;-79
2021/07/31 13:10:34;;;;;;;8.70;2.35;;;;;;;;;;4968965;28;20188;-78
2021/07/31 13:13:03;;;;;;;3.88;1.90;;;;;;;;;;4969883;28;20050;-79
2021/07/31 13:15:31;;;;;;;4.65;1.77;;;;;;;;;;5001419;28;20089;-80
2021/07/31 13:17:58;;;;;;;7.78;2.08;;;;;;;;;;4989986;28;20100;-80
2021/07/31 13:20:26;;;;;;;2.13;1.55;;;;;;;;;;4990385;28;20070;-80
2021/07/31 13:22:53;;;;;;;3.92;1.50;;;;;;;;;;4983099;28;20047;-80
2021/07/31 13:25:21;;;;;;;6.00;1.90;;;;;;;;;;4987888;28;20680;-80
2021/07/31 13:27:49;;;;;;;7.40;1.40;;;;;;;;;;4985374;28;20141;-80
2021/07/31 13:30:21;;;;;;;2.63;1.00;;;;;;;;;;4975074;28;20046;-81
2021/07/31 13:32:48;;;;;;;2.40;1.10;;;;;;;;;;4988224;28;20077;-80
2021/07/31 13:35:16;;;;;;;4.28;1.40;;;;;;;;;;4971631;28;20649;-80
2021/07/31 13:37:48;;;;;;;5.50;2.47;;;;;;;;;;4989911;28;20050;-81
2021/07/31 13:40:22;;;;;;;5.80;1.25;;;;;;;;;;4988798;28;20051;-80
2021/07/31 13:42:56;;;;;;;2.83;1.25;;;;;;;;;;4972989;28;20046;-81
2021/07/31 13:45:24;;;;;;;7.85;1.45;;;;;;;;;;4971399;28;20225;-79
2021/07/31 13:47:57;;;;;;;2.92;1.25;;;;;;;;;;4989530;28;20061;-79
2021/07/31 13:50:24;;;;;;;3.30;1.38;;;;;;;;;;4974589;28;20062;-79
2021/07/31 13:52:51;;;;;;;8.82;1.77;;;;;;;;;;4989200;28;20062;-80
2021/07/31 13:55:18;;;;;;;3.08;1.70;;;;;;;;;;4990423;28;20524;-82
2021/07/31 13:57:45;;;;;;;3.67;1.70;;;;;;;;;;5007192;28;20060;-80
2021/07/31 14:00:13;;;;;;;3.15;1.80;;;;;;;;;;4987611;28;20078;-81
2021/07/31 14:02:43;;;;;;;2.42;1.50;;;;;;;;;;4988146;28;20054;-80
2021/07/31 14:05:12;;;;;;;5.90;1.92;;;;;;;;;;4970714;28;20411;-80
2021/07/31 14:07:42;;;;;;;25.17;2.38;;;;;;;;;;4988040;28;20129;-82
2021/07/31 14:10:15;;;;;;;8.25;1.90;;;;;;;;;;4991304;28;20066;-82
2021/07/31 14:12:42;;;;;;;3.45;2.00;;;;;;;;;;4977930;28;20138;-81
2021/07/31 14:15:19;;;;;;;13.23;2.08;;;;;;;;;;4987263;28;20451;-81
2021/07/31 14:17:48;;;;;;;11.68;1.80;;;;;;;;;;4982422;28;20146;-81
2021/07/31 14:20:15;;;;;;;5.90;1.77;;;;;;;;;;4973192;28;20047;-82
2021/07/31 14:22:52;;;;;;;8.18;2.15;;;;;;;;;;4987390;28;20058;-83
2021/07/31 14:25:32;;;;;;;5.60;2.08;;;;;;;;;;4993590;28;20478;-83
2021/07/31 14:28:15;;;;;;;2.55;2.08;;;;;;;;;;4996135;28;20046;-83
2021/07/31 14:30:51;;;;;;;5.90;2.13;;;;;;;;;;4988855;28;20104;-84
2021/07/31 14:33:21;;;;;;;8.52;2.10;;;;;;;;;;5069576;22;20137;-81
2021/07/31 14:35:49;;;;;;;9.00;2.90;;;;;;;;;;5013430;28;20127;-85
2021/07/31 14:38:17;;;;;;;6.45;2.80;;;;;;;;;;5017524;28;20049;-85
2021/07/31 14:40:44;;;;;;;10.95;4.18;;;;;;;;;;5023825;28;20140;-84
2021/07/31 14:43:11;;;;;;;11.38;4.25;;;;;;;;;;5025370;28;20054;-85
2021/07/31 14:45:39;;;;;;;6.50;3.70;;;;;;;;;;4995180;28;20082;-85
2021/07/31 14:48:07;;;;;;;7.55;3.60;;;;;;;;;;5035707;28;20137;-84
2021/07/31 14:50:34;;;;;;;4.80;3.45;;;;;;;;;;4994875;28;20054;-83
2021/07/31 14:53:02;;;;;;;5.50;3.60;;;;;;;;;;5025904;28;20088;-84
2021/07/31 14:55:29;;;;;;;10.63;4.13;;;;;;;;;;5025963;28;20094;-83
2021/07/31 14:57:56;;;;;;;8.07;4.00;;;;;;;;;;4998671;28;20168;-84
2021/07/31 15:00:24;;;;;;;7.55;4.40;;;;;;;;;;5013449;28;20049;-84
2021/07/31 15:02:51;;;;;;;8.10;3.70;;;;;;;;;;5012958;28;20049;-84
2021/07/31 15:05:18;;;;;;;5.32;3.30;;;;;;;;;;5012941;28;20046;-84
2021/07/31 15:07:45;;;;;;;3.90;3.40;;;;;;;;;;5014199;28;20058;-83
2021/07/31 15:10:12;;;;;;;4.38;2.88;;;;;;;;;;5022341;28;20675;-84
2021/07/31 15:12:40;;;;;;;3.58;2.80;;;;;;;;;;5045581;28;20054;-81
2021/07/31 15:15:08;;;;;;;3.50;2.67;;;;;;;;;;5045866;28;20049;-82
2021/07/31 15:17:35;;;;;;;6.13;2.55;;;;;;;;;;5013703;28;20046;-83
2021/07/31 15:20:03;;;;;;;7.45;2.85;;;;;;;;;;5013080;28;20168;-81
2021/07/31 15:22:30;;;;;;;8.65;2.55;;;;;;;;;;5009547;28;20050;-80
2021/07/31 15:25:02;;;;;;;2.50;2.05;;;;;;;;;;5012753;28;20557;-82
2021/07/31 15:27:30;;;;;;;6.10;2.00;;;;;;;;;;5011912;28;20077;-85
2021/07/31 15:30:00;;;;;;;3.80;2.13;;;;;;;;;;5011609;28;20133;-82
2021/07/31 15:32:30;;;;;;;3.75;1.90;;;;;;;;;;5011670;28;20056;-83
2021/07/31 15:35:02;;;;;;;4.65;2.42;;;;;;;;;;5013463;28;20054;-82
2021/07/31 15:37:31;;;;;;;3.60;2.22;;;;;;;;;;5012388;28;20054;-82
2021/07/31 15:40:00;;;;;;;3.40;1.65;;;;;;;;;;5011484;28;20076;-82
2021/07/31 15:42:27;;;;;;;2.95;2.05;;;;;;;;;;5011103;28;20177;-82
2021/07/31 15:44:56;;;;;;;7.00;2.45;;;;;;;;;;5010570;28;20744;-81
2021/07/31 15:47:24;;;;;;;6.45;1.98;;;;;;;;;;5010373;28;20054;-81
2021/07/31 15:49:53;;;;;;;10.68;2.67;;;;;;;;;;5011483;28;20080;-84
2021/07/31 15:52:20;;;;;;;6.85;2.08;;;;;;;;;;5011742;28;20077;-83
2021/07/31 15:54:47;;;;;;;4.80;1.85;;;;;;;;;;5011194;28;20096;-82
2021/07/31 15:57:15;;;;;;;6.10;2.33;;;;;;;;;;5005389;28;20050;-82
2021/07/31 15:59:42;;;;;;;9.30;2.30;;;;;;;;;;5021442;28;20100;-83
2021/07/31 16:02:09;;;;;;;4.85;2.78;;;;;;;;;;5029830;28;20296;-81
2021/07/31 16:04:36;;;;;;;6.72;2.40;;;;;;;;;;5041360;28;20054;-82
2021/07/31 16:07:05;;;;;;;6.38;2.65;;;;;;;;;;5012082;28;20140;-80
2021/07/31 16:09:38;;;;;;;5.22;2.50;;;;;;;;;;5011229;28;20097;-83
2021/07/31 16:12:06;;;;;;;5.18;2.88;;;;;;;;;;5010057;28;20112;-84
2021/07/31 16:14:39;;;;;;;13.85;2.47;;;;;;;;;;5010050;28;20061;-82
2021/07/31 16:17:10;;;;;;;3.47;2.10;;;;;;;;;;5008387;28;20108;-82
2021/07/31 16:19:42;;;;;;;2.90;2.25;;;;;;;;;;5009037;28;20681;-83
2021/07/31 16:22:16;;;;;;;4.47;2.08;;;;;;;;;;5009914;28;20042;-85
2021/07/31 16:24:47;;;;;;;5.65;1.45;;;;;;;;;;4996882;28;20054;-85
2021/07/31 16:27:26;;;;;;;2.85;1.10;;;;;;;;;;5009934;28;20069;-84
2021/07/31 16:29:53;;;;;;;2.38;1.63;;;;;;;;;;5010042;28;20084;-80
2021/07/31 16:32:26;;;;;;;6.38;1.40;;;;;;;;;;5008654;28;20053;-82
2021/07/31 16:34:58;;;;;;;6.38;1.98;;;;;;;;;;4994236;28;20116;-81
2021/07/31 16:37:26;;;;;;;5.22;1.70;;;;;;;;;;5008307;28;20084;-83
2021/07/31 16:39:53;;;;;;;2.97;1.77;;;;;;;;;;5010924;28;20124;-81
2021/07/31 16:42:23;;;;;;;4.00;1.58;;;;;;;;;;5000079;28;20047;-81
2021/07/31 16:44:50;;;;;;;5.30;2.00;;;;;;;;;;4987839;28;20042;-82
2021/07/31 16:47:17;;;;;;;9.48;2.13;;;;;;;;;;5005484;28;20129;-83
2021/07/31 16:49:44;;;;;;;4.50;1.50;;;;;;;;;;5038520;28;20137;-81
2021/07/31 16:52:14;;;;;;;5.22;2.10;;;;;;;;;;5007371;28;20140;-86
2021/07/31 16:54:45;;;;;;;6.45;2.08;;;;;;;;;;4993143;28;20049;-83
2021/07/31 16:57:12;;;;;;;7.57;2.30;;;;;;;;;;5008841;28;20096;-87
2021/07/31 16:59:40;;;;;;;11.77;3.92;;;;;;;;;;5004184;28;20152;-86
2021/07/31 17:02:20;;;;;;;8.20;3.03;;;;;;;;;;5009236;28;20128;-84
2021/07/31 17:05:18;;;;;;;5.30;3.03;;;;;;;;;;5029526;28;20126;-83
2021/07/31 17:07:58;;;;;;;4.13;3.30;;;;;;;;;;5008222;28;20050;-83
2021/07/31 17:10:26;;;;;;;7.40;3.47;;;;;;;;;;5009507;28;20578;-86
2021/07/31 17:12:53;;;;;;;9.73;3.75;;;;;;;;;;5008341;28;20046;-86
2021/07/31 17:15:27;;;;;;;5.68;3.20;;;;;;;;;;4998862;28;20141;-85
2021/07/31 17:17:56;;;;;;;7.30;3.60;;;;;;;;;;5009592;28;20129;-94
2021/07/31 17:20:31;;;;;;;8.23;3.58;;;;;;;;;;5009069;28;20046;-83
2021/07/31 17:23:03;;;;;;;12.77;4.10;;;;;;;;;;5009255;28;20685;-85
2021/07/31 17:25:41;;;;;;;9.82;4.18;;;;;;;;;;5004604;28;20041;-84
2021/07/31 17:28:14;;;;;;;7.07;4.35;;;;;;;;;;5009397;28;20741;-85
2021/07/31 17:30:44;;;;;;;8.65;4.03;;;;;;;;;;5008944;28;20045;-87
2021/07/31 17:33:11;;;;;;;10.75;4.45;;;;;;;;;;5009040;28;20046;-89
2021/07/31 17:35:41;;;;;;;12.38;4.85;;;;;;;;;;5015607;28;20049;-90
2021/07/31 17:38:08;;;;;;;8.45;5.07;;;;;;;;;;5008751;28;20054;-86
2021/07/31 17:40:43;;;;;;;13.40;5.47;;;;;;;;;;5008213;28;20064;-86
2021/07/31 17:43:29;;;;;;;12.10;5.53;;;;;;;;;;5008322;28;20398;-85
2021/07/31 17:46:06;;;;;;;15.38;5.20;;;;;;;;;;5009158;28;20108;-87
2021/07/31 17:48:38;;;;;;;11.65;5.40;;;;;;;;;;5038943;28;20050;-86
2021/07/31 17:51:06;;;;;;;9.70;4.07;;;;;;;;;;5008813;28;20085;-86
2021/07/31 17:53:39;;;;;;;6.30;4.45;;;;;;;;;;5006722;28;20129;-84
2021/07/31 17:56:08;;;;;;;13.82;4.80;;;;;;;;;;5010032;28;20060;-84
2021/07/31 17:58:38;;;;;;;8.55;5.13;;;;;;;;;;5008705;28;20720;-84
2021/07/31 18:01:08;;;;;;;12.75;5.45;;;;;;;;;;5010310;28;20736;-85
2021/07/31 18:03:37;;;;;;;16.27;5.57;;;;;;;;;;5007369;28;20112;-85
2021/07/31 18:06:04;;;;;;;13.20;5.68;;;;;;;;;;5008069;28;20100;-83
2021/07/31 18:08:31;;;;;;;8.40;5.78;;;;;;;;;;5009896;28;20049;-83
2021/07/31 18:11:08;;;;;;;11.80;5.60;;;;;;;;;;5040331;28;20049;-84
2021/07/31 18:13:41;;;;;;;7.72;4.80;;;;;;;;;;5001214;28;20727;-82
2021/07/31 18:16:09;;;;;;;10.77;5.65;;;;;;;;;;5029818;28;20630;-85
2021/07/31 18:18:36;;;;;;;9.32;5.43;;;;;;;;;;5010312;28;20064;-86
2021/07/31 18:21:08;;;;;;;10.00;5.88;;;;;;;;;;5008314;28;20144;-85
2021/07/31 18:23:38;;;;;;;9.93;5.53;;;;;;;;;;5038582;28;20537;-92
2021/07/31 18:26:30;;;;;;;13.23;6.80;;;;;;;;;;5011905;28;20046;-91
2021/07/31 18:29:01;;;;;;;8.18;6.20;;;;;;;;;;5010196;28;20760;-85
2021/07/31 18:31:28;;;;;;;8.52;5.32;;;;;;;;;;5009900;28;20057;-86
2021/07/31 18:33:56;;;;;;;13.10;6.85;;;;;;;;;;5007209;28;20080;-85
2021/07/31 18:36:27;;;;;;;9.93;5.88;;;;;;;;;;5012382;28;20042;-86
2021/07/31 18:38:57;;;;;;;12.38;6.20;;;;;;;;;;5009068;28;20077;-85
2021/07/31 18:41:26;;;;;;;11.82;5.82;;;;;;;;;;5041175;28;20053;-83
2021/07/31 18:43:58;;;;;;;12.60;6.38;;;;;;;;;;5008325;28;20148;-83
2021/07/31 18:46:32;;;;;;;12.43;6.30;;;;;;;;;;5008976;28;20046;-85
2021/07/31 18:49:06;;;;;;;10.87;5.70;;;;;;;;;;5007670;28;20108;-87
2021/07/31 18:51:43;;;;;;;10.60;5.60;;;;;;;;;;5003504;28;20461;-85
2021/07/31 18:54:19;;;;;;;11.50;6.18;;;;;;;;;;5008282;28;20505;-82
2021/07/31 18:56:51;;;;;;;;;;;;;;;;;;5008168;28;20045;-81
2021/07/31 18:59:21;;;;;;;14.27;6.30;;;;;;;;;;5007304;28;20574;-81
2021/07/31 19:01:49;;;;;;;10.52;5.80;;;;;;;;;;5006740;28;20488;-81
2021/07/31 19:04:20;;;;;;;17.52;6.45;;;;;;;;;;5006196;28;20104;-82
2021/07/31 19:06:50;;;;;;;10.18;6.05;;;;;;;;;;5009146;28;20549;-81
2021/07/31 19:09:20;;;;;;;13.68;6.40;;;;;;;;;;5007468;28;20080;-82
2021/07/31 19:12:03;;;;;;;12.45;6.65;;;;;;;;;;5039091;28;20084;-82
2021/07/31 19:14:31;;;;;;;9.68;6.80;;;;;;;;;;5003468;28;20727;-82
2021/07/31 19:16:59;;;;;;;14.70;5.45;;;;;;;;;;5007260;28;20129;-82
2021/07/31 19:22:37;;;;;;;14.13;6.22;;;;;;;;;;5095861;22;20087;-86
2021/07/31 19:25:14;;;;;;;8.32;5.93;;;;;;;;;;5014738;28;20134;-87
2021/07/31 19:27:48;;;;;;;10.88;5.50;;;;;;;;;;5011071;28;20096;-88
2021/07/31 19:30:16;;;;;;;9.80;4.72;;;;;;;;;;5004461;28;20083;-87
2021/07/31 19:32:54;;;;;;;9.02;5.03;;;;;;;;;;5024260;28;20049;-88
2021/07/31 19:35:21;;;;;;;9.15;5.13;;;;;;;;;;5009751;28;20546;-86
2021/07/31 19:38:03;;;;;;;9.48;5.13;;;;;;;;;;5024907;28;20084;-87
2021/07/31 19:43:17;;;;;;;13.43;5.35;;;;;;;;;;4938236;28;20130;-87
2021/07/31 19:45:48;;;;;;;8.88;4.82;;;;;;;;;;4928177;29;20205;-86
2021/07/31 19:48:17;;;;;;;10.18;5.05;;;;;;;;;;4933468;29;20118;-86
2021/07/31 19:50:46;;;;;;;7.65;4.75;;;;;;;;;;4934754;29;20055;-84
2021/07/31 19:53:14;;;;;;;11.10;5.50;;;;;;;;;;4941235;28;20089;-84
2021/07/31 19:55:44;;;;;;;5.75;4.60;;;;;;;;;;4917919;29;20060;-85
2021/07/31 19:58:14;;;;;;;10.85;5.43;;;;;;;;;;4947943;28;20047;-85
2021/07/31 20:00:42;;;;;;;7.88;5.07;;;;;;;;;;4931205;29;20111;-85
2021/07/31 20:03:10;;;;;;;8.65;5.60;;;;;;;;;;4916753;29;20127;-85
2021/07/31 20:05:38;;;;;;;6.45;5.40;;;;;;;;;;4932076;28;20091;-85
2021/07/31 20:08:09;;;;;;;15.35;5.88;;;;;;;;;;4941196;28;20055;-86
2021/07/31 20:10:42;;;;;;;10.07;5.32;;;;;;;;;;4937585;28;20056;-86
2021/07/31 20:13:12;;;;;;;11.40;6.78;;;;;;;;;;4949129;28;20052;-88
2021/07/31 20:15:39;;;;;;;7.70;5.38;;;;;;;;;;4932049;28;20497;-87
2021/07/31 20:18:08;;;;;;;13.23;6.63;;;;;;;;;;4924978;29;20421;-87
2021/07/31 20:20:37;;;;;;;13.40;7.10;;;;;;;;;;4919129;29;20489;-87
2021/07/31 20:23:05;;;;;;;10.27;5.68;;;;;;;;;;4928810;29;20059;-88
2021/07/31 20:25:47;;;;;;;8.25;5.60;;;;;;;;;;4929768;29;20074;-88
2021/07/31 20:28:24;;;;;;;10.27;5.63;;;;;;;;;;4944934;28;20051;-88
2021/07/31 20:30:57;;;;;;;6.55;5.00;;;;;;;;;;4931943;29;20086;-87
2021/07/31 20:33:30;;;;;;;6.00;4.97;;;;;;;;;;4926639;29;20079;-87
2021/07/31 20:35:58;;;;;;;7.00;4.88;;;;;;;;;;4944496;28;20051;-87
2021/07/31 20:38:28;;;;;;;9.77;5.05;;;;;;;;;;4949071;28;20134;-87
2021/07/31 20:40:55;;;;;;;7.18;5.00;;;;;;;;;;4933315;29;20452;-87
2021/07/31 20:43:27;;;;;;;14.25;4.72;;;;;;;;;;4936501;29;20500;-87
2021/07/31 20:45:55;;;;;;;8.38;4.93;;;;;;;;;;4951974;28;20699;-87
2021/07/31 20:48:25;;;;;;;12.40;6.07;;;;;;;;;;4953871;29;20102;-88
2021/07/31 20:50:53;;;;;;;11.65;5.82;;;;;;;;;;4936732;29;20055;-88
2021/07/31 20:53:24;;;;;;;14.43;5.00;;;;;;;;;;4936508;29;20059;-88
2021/07/31 20:55:52;;;;;;;9.38;5.35;;;;;;;;;;4958001;28;20055;-88
2021/07/31 20:58:19;;;;;;;14.07;8.18;;;;;;;;;;4944319;29;20051;-88
2021/07/31 21:00:46;;;;;;;15.07;6.88;;;;;;;;;;4952370;28;20074;-87
2021/07/31 21:03:14;;;;;;;10.05;5.63;;;;;;;;;;4950206;29;20063;-88
2021/07/31 21:05:41;;;;;;;12.85;5.82;;;;;;;;;;4936136;29;20721;-88
2021/07/31 21:08:08;;;;;;;10.65;6.43;;;;;;;;;;4935281;29;20055;-88
2021/07/31 21:10:36;;;;;;;10.85;5.88;;;;;;;;;;4939065;29;20379;-88
2021/07/31 21:13:03;;;;;;;12.35;5.55;;;;;;;;;;4946537;29;20074;-88
2021/07/31 21:15:30;;;;;;;14.43;6.28;;;;;;;;;;4935672;29;20086;-86
2021/07/31 21:17:59;;;;;;;9.82;5.70;;;;;;;;;;4951946;28;20051;-87
2021/07/31 21:20:28;;;;;;;12.75;5.78;;;;;;;;;;4933058;29;20111;-87
2021/07/31 21:22:56;;;;;;;10.32;5.65;;;;;;;;;;4946855;29;20725;-87
2021/07/31 21:25:23;;;;;;;14.43;6.00;;;;;;;;;;4951273;28;20105;-86
2021/07/31 21:27:50;;;;;;;8.82;5.90;;;;;;;;;;4948056;28;20050;-88
2021/07/31 21:30:17;;;;;;;11.27;5.50;;;;;;;;;;4933895;29;20106;-87
2021/07/31 21:32:44;;;;;;;12.10;5.82;;;;;;;;;;4949431;28;20055;-86
2021/07/31 21:35:12;;;;;;;10.75;5.85;;;;;;;;;;4935612;29;20102;-86
2021/07/31 21:37:39;;;;;;;10.32;5.80;;;;;;;;;;4941464;28;20148;-88
2021/07/31 21:40:06;;;;;;;10.43;5.63;;;;;;;;;;4942066;28;20614;-87
2021/07/31 21:42:34;;;;;;;10.00;5.90;;;;;;;;;;4932461;29;20063;-87
2021/07/31 21:45:03;;;;;;;11.48;5.38;;;;;;;;;;4930409;29;20146;-87
2021/07/31 21:47:30;;;;;;;8.45;5.70;;;;;;;;;;4951622;28;20082;-87
2021/07/31 21:49:57;;;;;;;7.90;5.43;;;;;;;;;;4933883;29;20150;-87
2021/07/31 21:52:24;;;;;;;9.38;4.95;;;;;;;;;;4951743;29;20207;-87
2021/07/31 21:54:55;;;;;;;6.50;5.28;;;;;;;;;;4948342;28;20488;-87
2021/07/31 21:57:24;;;;;;;8.48;5.40;;;;;;;;;;4953144;28;20078;-87
2021/07/31 21:59:55;;;;;;;12.77;5.53;;;;;;;;;;4934931;29;20059;-88
2021/07/31 22:02:23;;;;;;;23.27;5.82;;;;;;;;;;4935026;29;20982;-87
2021/07/31 22:04:51;;;;;;;8.85;5.13;;;;;;;;;;4936204;29;20040;-87
2021/07/31 22:07:19;;;;;;;8.95;5.35;;;;;;;;;;4944633;29;20461;-87
2021/07/31 22:09:46;;;;;;;9.30;4.65;;;;;;;;;;4946843;28;20080;-87
2021/07/31 22:12:13;;;;;;;10.85;4.72;;;;;;;;;;4930095;29;20074;-87
2021/07/31 22:14:41;;;;;;;13.30;5.47;;;;;;;;;;4936093;29;20135;-87
2021/07/31 22:17:11;;;;;;;7.38;4.72;;;;;;;;;;4939524;29;20059;-87
2021/07/31 22:19:38;;;;;;;9.20;4.80;;;;;;;;;;4940915;29;20151;-87
2021/07/31 22:22:05;;;;;;;8.07;4.28;;;;;;;;;;4930430;29;20082;-88
2021/07/31 22:24:33;;;;;;;9.38;4.20;;;;;;;;;;4961300;28;20082;-87
2021/07/31 22:27:02;;;;;;;11.13;4.25;;;;;;;;;;4937118;28;20043;-87
2021/07/31 22:29:29;;;;;;;6.82;4.20;;;;;;;;;;4935830;29;20082;-87
2021/07/31 22:31:56;;;;;;;7.72;4.10;;;;;;;;;;4949285;28;20079;-87
2021/07/31 22:34:23;;;;;;;11.20;4.32;;;;;;;;;;4946846;28;20058;-87
2021/07/31 22:36:51;;;;;;;6.75;4.00;;;;;;;;;;4954977;28;20047;-87
2021/07/31 22:39:20;;;;;;;9.95;4.43;;;;;;;;;;4950639;28;20121;-86
2021/07/31 22:41:47;;;;;;;9.02;4.72;;;;;;;;;;4933993;29;20083;-86
2021/07/31 22:44:14;;;;;;;12.93;4.88;;;;;;;;;;4951111;29;20047;-87
2021/07/31 22:46:42;;;;;;;9.30;4.65;;;;;;;;;;4934562;29;20126;-87
2021/07/31 22:49:09;;;;;;;9.52;4.82;;;;;;;;;;4938286;29;20721;-87
2021/07/31 22:51:36;;;;;;;10.52;5.63;;;;;;;;;;4938260;29;20134;-87
2021/07/31 22:54:08;;;;;;;11.43;4.85;;;;;;;;;;4946728;28;20298;-87
2021/07/31 22:56:35;;;;;;;9.48;4.80;;;;;;;;;;4943331;29;20098;-87
2021/07/31 22:59:04;;;;;;;15.77;6.55;;;;;;;;;;4962409;28;20145;-87
2021/07/31 23:01:31;;;;;;;17.67;5.63;;;;;;;;;;4944520;28;20065;-87
2021/07/31 23:04:01;;;;;;;18.48;5.20;;;;;;;;;;4936910;29;20047;-88
2021/07/31 23:06:28;;;;;;;9.98;4.90;;;;;;;;;;4936411;29;20141;-88
2021/07/31 23:08:55;;;;;;;12.93;4.97;;;;;;;;;;4938593;29;20197;-88
2021/07/31 23:11:23;;;;;;;10.02;4.90;;;;;;;;;;4937191;29;20090;-87
2021/07/31 23:13:50;;;;;;;9.35;4.88;;;;;;;;;;4936483;29;20051;-88
2021/07/31 23:16:18;;;;;;;14.40;5.03;;;;;;;;;;4950501;29;20055;-88
2021/07/31 23:18:46;;;;;;;11.25;4.95;;;;;;;;;;4950185;29;20070;-87
2021/07/31 23:21:13;;;;;;;9.63;4.82;;;;;;;;;;4953433;28;20051;-87
2021/07/31 23:23:42;;;;;;;13.27;5.25;;;;;;;;;;4935321;29;20047;-87
2021/07/31 23:26:09;;;;;;;14.25;5.22;;;;;;;;;;4952834;28;20650;-87
2021/07/31 23:28:41;;;;;;;9.23;5.38;;;;;;;;;;4951362;28;20104;-88
2021/07/31 23:31:08;;;;;;;9.95;5.43;;;;;;;;;;4939158;29;20780;-87
2021/07/31 23:33:40;;;;;;;8.65;5.43;;;;;;;;;;4949085;28;20673;-87
2021/07/31 23:36:11;;;;;;;17.45;5.63;;;;;;;;;;4952067;28;20075;-88
2021/07/31 23:38:38;;;;;;;12.05;5.05;;;;;;;;;;4937859;29;20732;-87
2021/07/31 23:41:05;;;;;;;10.35;5.88;;;;;;;;;;4953059;28;20058;-88
2021/07/31 23:43:35;;;;;;;9.20;5.40;;;;;;;;;;4971024;28;20074;-88
2021/07/31 23:46:09;;;;;;;11.55;5.75;;;;;;;;;;4941947;28;20177;-88
2021/07/31 23:48:36;;;;;;;12.00;5.43;;;;;;;;;;4940718;29;20167;-88
2021/07/31 23:51:03;;;;;;;10.77;5.85;;;;;;;;;;4939315;28;20142;-87
2021/07/31 23:53:31;;;;;;;11.85;5.82;;;;;;;;;;4938418;28;20102;-87
2021/07/31 23:55:58;;;;;;;9.93;5.80;;;;;;;;;;4946131;29;20098;-87
2021/07/31 23:58:25;;;;;;;12.77;5.60;;;;;;;;;;4956726;28;20137;-87
